Ana Sayfa
METAR-TAF:

METAR-TAF

Havaalanları :

Pattani, Tayland

Enlem: 06-47-08N, Boylam: 101-09-13E, yükseklik: 2 m

METAR: eksik

Saat: 04:28 (21:28 UTC)

Tahmin

Rapor saat 17:00 UTC de 4 saat ve 28 dakika önce yapıldı.
Ayın 22'si saat 18 UTC'den ayın 23'si saat 18 UTC'ye kadar geçerli Tahmin
Rüzgar güneydan 3 kt
Görüş mesafesi: 8000 m
2000 ft yükseklikte az bulutlu
Geçici
ayın 23'si saat 07 UTC'den ayın 23'si saat 13 UTC'ye kadar
Rüzgar değişken yönden 10 kt ve 20 kt'a kadar ani rüzgarlar
Görüş mesafesi: 5000 m
1600 ft yükseklikte az bulutlu, Kümülonimbus.
1800 ft yükseklikte parçalı bulutlu
10000 ft yükseklikte parçalı çok bulutlu
gök gürültülü fırtına, yağmur

TAF: VTSK 221700Z 2218/2318 19003KT 8000 FEW020 TEMPO 2307/2313 VRB10G20KT 5000 TSRA FEW016CB SCT018 BKN100

4.000'den fazla havaalanı için hava durumu gözlemleri ve tahminleri (METAR ve TAF raporları).

Kullanılabilir istasyonlar harita üzerinde sarı ve kırmızı noktalarla gösterilir.

İstasyonun adını görmek için fareyi noktanın üzerinde gezdirin.

Sonrasında hava gözlem ve tahminlerini görmek için tıklayın.

Haritayı değiştirmek için: yaklaştırmak için siyah artı işaretli yeşil düğmeye ve uzaklaştırmak için de eksi işaretli düğmeye hızla tıklayın; bitişik haritalar için yeşil okları kullanın.


METAR-TAF: